Time;durP1;ratioP1;P1;durP2;ratioP2;P2;SDS_P1;SDS_P2;PMS_P1;PMS_P2;Temp;Humidity;BMP_temperature;BMP_pressure;BME280_temperature;BME280_humidity;BME280_pressure;Samples;Min_cycle;Max_cycle;Signal;HPM_P1;HPM_P2
2021/08/24 00:04:16;;;;;;;8.73;2.75;;;;;;;14.85;72.63;102644.72;10104526;28;20073;-73
2021/08/24 00:09:15;;;;;;;7.45;3.05;;;;;;;14.77;72.94;102651.72;10103662;28;20053;-70
2021/08/24 00:14:13;;;;;;;7.55;2.85;;;;;;;14.72;73.04;102654.56;10113548;28;20485;-70
2021/08/24 00:19:15;;;;;;;6.40;3.03;;;;;;;14.65;73.00;102654.13;10114490;28;20165;-69
2021/08/24 00:24:16;;;;;;;7.53;2.83;;;;;;;14.56;72.81;102655.91;10106193;28;20047;-69
2021/08/24 00:29:18;;;;;;;5.97;2.90;;;;;;;14.50;73.25;102664.22;10105478;28;20042;-73
2021/08/24 00:34:19;;;;;;;6.30;2.72;;;;;;;14.44;73.43;102665.41;10113937;28;20116;-73
2021/08/24 00:39:22;;;;;;;8.10;2.58;;;;;;;14.39;73.46;102679.25;10109910;28;20043;-70
2021/08/24 00:44:21;;;;;;;6.18;2.75;;;;;;;14.32;73.46;102676.84;10110832;28;20042;-69
2021/08/24 00:49:26;;;;;;;9.43;2.72;;;;;;;14.27;73.69;102681.59;10109429;28;20051;-70
2021/08/24 00:54:30;;;;;;;6.95;2.30;;;;;;;14.23;73.66;102680.56;10112386;28;20050;-69
2021/08/24 00:59:45;;;;;;;6.53;2.55;;;;;;;14.17;74.23;102687.22;10113299;28;20057;-71
2021/08/24 01:04:50;;;;;;;6.07;2.72;;;;;;;14.13;74.30;102680.66;10107475;28;20046;-70
2021/08/24 01:10:12;;;;;;;13.77;2.95;;;;;;;14.09;74.47;102683.19;10109675;28;20077;-69
2021/08/24 01:15:43;;;;;;;6.85;2.90;;;;;;;14.04;74.51;102684.09;10099003;28;20058;-69
2021/08/24 01:21:12;;;;;;;5.63;2.60;;;;;;;14.02;74.74;102686.31;10107651;28;20054;-71
2021/08/24 01:26:32;;;;;;;6.40;2.40;;;;;;;14.07;75.02;102694.50;10107543;28;20051;-69
2021/08/24 01:31:40;;;;;;;4.47;2.50;;;;;;;14.01;74.80;102692.91;10105960;28;20047;-70
2021/08/24 01:37:02;;;;;;;5.10;2.60;;;;;;;13.92;74.74;102691.91;10110755;28;20077;-69
2021/08/24 01:42:22;;;;;;;7.15;2.10;;;;;;;13.83;75.05;102701.91;10065599;28;20055;-69
2021/08/24 01:47:48;;;;;;;4.97;2.63;;;;;;;13.74;75.01;102696.25;10098377;28;20055;-69
2021/08/24 01:52:55;;;;;;;7.07;2.70;;;;;;;13.66;75.24;102700.44;10101755;28;20142;-70
2021/08/24 01:58:27;;;;;;;5.28;2.70;;;;;;;13.60;75.44;102701.59;10105384;28;20062;-68
2021/08/24 02:03:48;;;;;;;6.30;2.60;;;;;;;13.56;75.99;102697.78;10102312;28;20070;-69
2021/08/24 02:08:56;;;;;;;4.88;2.60;;;;;;;13.51;75.72;102703.34;10100115;28;20050;-70
2021/08/24 02:14:02;;;;;;;8.18;2.72;;;;;;;13.45;76.22;102710.81;10109978;28;20077;-69
2021/08/24 02:19:05;;;;;;;5.22;2.40;;;;;;;13.41;76.48;102708.91;10105860;28;20082;-69
2021/08/24 02:24:09;;;;;;;6.32;2.85;;;;;;;13.38;76.79;102704.00;10096123;28;20038;-69
2021/08/24 02:29:12;;;;;;;4.68;2.42;;;;;;;13.35;76.79;102710.09;10106558;28;20042;-70
2021/08/24 02:34:23;;;;;;;4.78;2.75;;;;;;;13.29;76.96;102700.25;10101313;28;20183;-69
2021/08/24 02:39:32;;;;;;;6.90;3.05;;;;;;;13.26;77.29;102702.44;10098220;28;20134;-69
2021/08/24 02:44:50;;;;;;;8.00;2.85;;;;;;;13.21;77.47;102705.22;10091535;28;20050;-69
2021/08/24 02:49:50;;;;;;;5.82;3.08;;;;;;;13.20;77.41;102714.56;10101975;28;20051;-69
2021/08/24 02:55:00;;;;;;;9.65;2.88;;;;;;;13.21;77.82;102710.72;10102528;28;20055;-68
2021/08/24 03:00:09;;;;;;;6.07;2.97;;;;;;;13.21;78.18;102710.72;10096959;28;20050;-69
2021/08/24 03:05:07;;;;;;;6.85;2.78;;;;;;;13.20;77.87;102720.03;10104699;28;20077;-71
2021/08/24 03:10:22;;;;;;;8.88;3.08;;;;;;;13.22;78.50;102717.84;10099350;28;20145;-70
2021/08/24 03:15:45;;;;;;;6.00;3.50;;;;;;;13.20;78.66;102720.03;10094595;28;20082;-69
2021/08/24 03:20:49;;;;;;;11.85;4.10;;;;;;;13.23;78.58;102708.50;10057877;28;20445;-71
2021/08/24 03:25:59;;;;;;;12.90;4.38;;;;;;;13.22;78.98;102720.56;10101426;28;20105;-71
2021/08/24 03:30:56;;;;;;;9.90;4.07;;;;;;;13.24;78.87;102715.63;10108423;28;20093;-69
2021/08/24 03:35:58;;;;;;;11.60;4.47;;;;;;;13.23;79.31;102716.75;10092804;28;20051;-70
2021/08/24 03:41:10;;;;;;;9.97;4.17;;;;;;;13.23;79.04;102718.69;10096678;28;20054;-70
2021/08/24 03:46:14;;;;;;;11.25;4.38;;;;;;;13.22;79.90;102717.84;10105548;28;20051;-71
2021/08/24 03:51:19;;;;;;;8.98;4.30;;;;;;;13.23;79.27;102724.97;10105354;28;20038;-71
2021/08/24 03:56:34;;;;;;;11.85;5.10;;;;;;;13.23;79.08;102730.47;10099912;28;20051;-70
2021/08/24 04:01:34;;;;;;;14.45;5.90;;;;;;;13.22;79.52;102728.81;10111648;28;20521;-70
2021/08/24 04:06:32;;;;;;;14.38;7.45;;;;;;;13.17;79.40;102728.88;10111184;28;20503;-70
2021/08/24 04:11:37;;;;;;;15.40;7.22;;;;;;;13.15;79.68;102739.31;10113029;28;20538;-71
2021/08/24 04:16:39;;;;;;;19.38;8.05;;;;;;;13.16;79.97;102748.38;10104479;28;20086;-72
2021/08/24 04:21:44;;;;;;;16.88;7.45;;;;;;;13.14;80.05;102754.16;10098439;28;20066;-71
2021/08/24 04:26:46;;;;;;;12.27;7.68;;;;;;;13.14;79.83;102756.09;10096478;28;20043;-72
2021/08/24 04:31:48;;;;;;;14.30;8.52;;;;;;;13.10;79.77;102753.09;10107623;28;20049;-68
2021/08/24 04:36:45;;;;;;;16.75;8.35;;;;;;;13.07;79.92;102759.16;10101288;28;20043;-68
2021/08/24 04:41:53;;;;;;;15.57;8.23;;;;;;;13.06;80.13;102757.50;10097517;28;20057;-68
2021/08/24 04:46:53;;;;;;;14.23;9.15;;;;;;;13.06;79.73;102763.00;10093604;28;20047;-68
2021/08/24 04:52:09;;;;;;;15.57;8.90;;;;;;;13.05;79.85;102766.88;10108710;28;20050;-68
2021/08/24 04:57:18;;;;;;;13.23;9.27;;;;;;;13.04;80.00;102770.69;10097195;28;20888;-67
2021/08/24 05:02:50;;;;;;;19.05;8.63;;;;;;;13.10;80.29;102769.56;10098254;28;20058;-67
2021/08/24 05:07:51;;;;;;;18.80;9.05;;;;;;;13.13;80.46;102779.97;10098750;28;20051;-67
2021/08/24 05:12:53;;;;;;;13.73;7.78;;;;;;;13.14;80.74;102781.63;10095672;28;20043;-66
2021/08/24 05:17:59;;;;;;;10.80;7.95;;;;;;;13.15;80.59;102783.25;10090647;28;20039;-68
2021/08/24 05:23:04;;;;;;;13.30;8.50;;;;;;;13.15;80.71;102791.50;10093628;28;20039;-67
2021/08/24 05:28:05;;;;;;;11.90;8.50;;;;;;;13.16;80.81;102795.91;10101204;28;20101;-68
2021/08/24 05:33:02;;;;;;;13.40;8.27;;;;;;;13.19;80.56;102800.81;10103915;28;20077;-67
2021/08/24 05:38:02;;;;;;;17.23;8.57;;;;;;;13.26;80.99;102804.06;10106499;28;20039;-69
2021/08/24 05:43:16;;;;;;;17.23;8.88;;;;;;;13.33;81.94;102811.22;10096454;28;20051;-68
2021/08/24 05:48:12;;;;;;;11.43;7.37;;;;;;;13.37;81.78;102806.78;10098114;28;20043;-69
2021/08/24 05:53:11;;;;;;;12.38;9.02;;;;;;;13.42;82.28;102815.00;10106279;28;20082;-70
2021/08/24 05:58:13;;;;;;;17.75;9.32;;;;;;;13.45;82.10;102819.91;10098516;28;20049;-70
2021/08/24 06:03:23;;;;;;;17.88;8.45;;;;;;;13.47;82.36;102809.44;10107608;28;20161;-69
2021/08/24 06:08:22;;;;;;;17.38;8.25;;;;;;;13.51;82.81;102813.28;10099679;28;20098;-70
2021/08/24 06:13:32;;;;;;;15.55;7.53;;;;;;;13.54;82.61;102804.44;10098566;28;20055;-67
2021/08/24 06:18:33;;;;;;;14.02;7.40;;;;;;;13.60;81.83;102822.53;10106044;28;20043;-68
2021/08/24 06:23:56;;;;;;;12.40;7.23;;;;;;;13.72;81.77;102816.69;10092751;28;20134;-67
2021/08/24 06:28:59;;;;;;;16.00;6.97;;;;;;;13.82;81.63;102815.75;10093020;28;20136;-68
2021/08/24 06:34:17;;;;;;;14.07;6.57;;;;;;;13.88;81.12;102818.19;10099242;28;20057;-67
2021/08/24 06:39:38;;;;;;;16.75;7.45;;;;;;;14.03;82.53;102825.44;10091745;28;20043;-70
2021/08/24 06:44:44;;;;;;;8.55;5.43;;;;;;;14.14;83.09;102836.38;10099825;28;20047;-68
2021/08/24 06:49:47;;;;;;;11.90;4.80;;;;;;;14.28;82.84;102831.81;10101909;28;20043;-67
2021/08/24 06:54:49;;;;;;;8.25;4.30;;;;;;;14.37;83.18;102832.81;10096320;28;20039;-68
2021/08/24 06:59:46;;;;;;;7.28;3.20;;;;;;;14.49;83.33;102838.72;10091535;28;20047;-68
2021/08/24 07:04:50;;;;;;;7.53;3.65;;;;;;;14.61;82.44;102840.28;10076047;28;20066;-68
2021/08/24 07:09:51;;;;;;;9.95;3.50;;;;;;;14.70;82.42;102850.34;10082196;28;20043;-68
2021/08/24 07:14:48;;;;;;;6.90;2.70;;;;;;;14.86;81.69;102852.94;10080986;28;20113;-68
2021/08/24 07:19:44;;;;;;;4.55;2.13;;;;;;;14.99;80.54;102862.38;10088102;28;20196;-69
2021/08/24 07:24:41;;;;;;;4.43;1.63;;;;;;;15.03;79.15;102858.75;10089226;28;20051;-68
2021/08/24 07:29:38;;;;;;;4.78;2.05;;;;;;;15.13;78.83;102863.28;10100544;28;20039;-69
2021/08/24 07:34:35;;;;;;;5.10;2.22;;;;;;;15.21;78.61;102865.41;10102988;28;20057;-69
2021/08/24 07:39:32;;;;;;;5.45;2.03;;;;;;;15.34;78.92;102874.88;10094923;28;20131;-69
2021/08/24 07:44:31;;;;;;;5.72;1.98;;;;;;;15.50;78.34;102870.75;10107536;28;20162;-68
2021/08/24 07:49:30;;;;;;;5.20;1.80;;;;;;;15.66;78.07;102876.84;10095636;28;20078;-67
2021/08/24 07:54:26;;;;;;;5.97;2.42;;;;;;;15.80;77.75;102876.13;10100073;28;20508;-67
2021/08/24 07:59:23;;;;;;;8.05;2.17;;;;;;;15.92;76.98;102884.72;10099411;28;20386;-67
2021/08/24 08:04:24;;;;;;;4.60;1.80;;;;;;;16.03;75.58;102886.19;10099870;28;20432;-68
2021/08/24 08:09:20;;;;;;;7.80;2.10;;;;;;;16.09;75.06;102890.50;10094518;28;20035;-68
2021/08/24 08:14:18;;;;;;;4.90;1.48;;;;;;;16.27;74.69;102880.53;10084258;28;20082;-68
2021/08/24 08:19:15;;;;;;;7.28;1.73;;;;;;;16.46;74.19;102883.22;10094331;28;20556;-67
2021/08/24 08:24:11;;;;;;;7.35;1.60;;;;;;;16.62;72.01;102892.84;10099391;28;20452;-67
2021/08/24 08:29:12;;;;;;;6.28;1.60;;;;;;;16.79;70.92;102895.03;10092239;28;20651;-67
2021/08/24 08:34:10;;;;;;;5.75;2.15;;;;;;;16.90;69.31;102886.53;10087163;28;20047;-67
2021/08/24 08:39:07;;;;;;;7.35;1.65;;;;;;;16.98;67.58;102894.91;10087482;28;20129;-68
2021/08/24 08:44:25;;;;;;;3.75;1.30;;;;;;;17.09;68.10;102889.97;10090785;28;20043;-67
2021/08/24 08:49:24;;;;;;;4.90;1.40;;;;;;;17.19;67.17;102886.19;10104780;28;20163;-67
2021/08/24 08:55:02;;;;;;;4.57;1.38;;;;;;;17.35;66.52;102893.00;10101960;28;20101;-67
2021/08/24 09:00:19;;;;;;;4.38;1.48;;;;;;;17.51;65.59;102895.41;10113158;28;20074;-67
2021/08/24 09:05:20;;;;;;;6.65;2.25;;;;;;;17.61;64.18;102879.38;10099622;28;20047;-67
2021/08/24 09:10:19;;;;;;;9.65;2.22;;;;;;;17.79;63.98;102882.28;10085833;28;20497;-68
2021/08/24 09:15:19;;;;;;;8.68;2.63;;;;;;;17.93;65.50;102898.88;10090247;28;20051;-67
2021/08/24 09:20:47;;;;;;;5.53;1.90;;;;;;;18.09;64.16;102887.06;10098395;28;20078;-67
2021/08/24 09:26:02;;;;;;;5.07;1.90;;;;;;;18.23;63.39;102889.75;10095880;28;20057;-67
2021/08/24 09:31:00;;;;;;;4.90;2.10;;;;;;;18.47;62.94;102894.09;10105148;28;20051;-68
2021/08/24 09:35:58;;;;;;;4.95;2.10;;;;;;;18.68;58.83;102884.13;10109108;28;20059;-67
2021/08/24 09:40:56;;;;;;;5.53;1.98;;;;;;;18.83;57.58;102884.84;10098616;28;20110;-67
2021/08/24 09:45:58;;;;;;;5.35;2.03;;;;;;;19.03;59.28;102877.84;10098642;28;20051;-67
2021/08/24 09:51:16;;;;;;;4.30;2.10;;;;;;;19.36;59.75;102883.78;10104101;28;20784;-68
2021/08/24 09:56:13;;;;;;;5.45;2.22;;;;;;;19.83;58.81;102878.41;10093890;28;20043;-66
2021/08/24 10:01:15;;;;;;;4.88;2.15;;;;;;;20.39;56.67;102884.78;10090253;28;20139;-67
2021/08/24 10:06:24;;;;;;;7.32;1.98;;;;;;;20.63;53.75;102871.47;10087277;28;20501;-67
2021/08/24 10:11:31;;;;;;;4.18;2.03;;;;;;;21.47;56.36;102872.41;10080387;28;20071;-67
2021/08/24 10:16:29;;;;;;;8.68;2.45;;;;;;;22.19;53.84;102866.59;10092397;28;20047;-66
2021/08/24 10:22:06;;;;;;;4.78;1.55;;;;;;;22.24;53.97;102860.84;10096355;28;20082;-67
2021/08/24 10:27:08;;;;;;;5.15;2.40;;;;;;;22.21;52.24;102861.50;10093639;28;20042;-67
2021/08/24 10:32:08;;;;;;;5.00;2.23;;;;;;;21.68;52.60;102866.00;10104302;28;20097;-68
2021/08/24 10:37:23;;;;;;;4.88;1.88;;;;;;;21.56;53.96;102862.00;10089762;28;20042;-68
2021/08/24 10:42:23;;;;;;;5.95;3.00;;;;;;;21.87;51.01;102852.38;10088496;28;20089;-67
2021/08/24 10:47:25;;;;;;;6.45;2.22;;;;;;;22.05;53.21;102853.81;10089427;28;20133;-66
2021/08/24 10:52:36;;;;;;;5.18;2.30;;;;;;;22.62;51.03;102849.34;10080267;28;20618;-68
2021/08/24 10:57:51;;;;;;;4.97;2.10;;;;;;;22.86;49.37;102845.72;10086477;28;20098;-68
2021/08/24 11:03:12;;;;;;;5.82;1.98;;;;;;;22.02;50.62;102860.06;10088612;28;20386;-67
2021/08/24 11:08:23;;;;;;;4.90;1.85;;;;;;;21.86;50.44;102856.28;10091154;28;20047;-68
2021/08/24 11:13:47;;;;;;;4.40;2.00;;;;;;;22.56;47.23;102849.91;10074954;28;20139;-68
2021/08/24 11:18:49;;;;;;;4.82;2.15;;;;;;;22.89;49.69;102845.00;10079522;28;20158;-68
2021/08/24 11:23:57;;;;;;;5.05;2.42;;;;;;;22.89;44.78;102850.59;10081038;28;20920;-66
2021/08/24 11:29:14;;;;;;;6.43;2.05;;;;;;;23.15;45.93;102851.38;10086641;28;20125;-66
2021/08/24 11:34:23;;;;;;;4.28;1.90;;;;;;;23.35;48.03;102853.19;10083763;28;20841;-66
2021/08/24 11:39:35;;;;;;;6.18;2.25;;;;;;;23.38;48.76;102846.09;10077467;28;20051;-66
2021/08/24 11:44:39;;;;;;;6.05;2.03;;;;;;;22.89;48.71;102842.22;10078783;28;20054;-66
2021/08/24 11:49:48;;;;;;;4.72;2.00;;;;;;;22.58;50.29;102842.84;10077572;28;20777;-67
2021/08/24 11:55:06;;;;;;;4.43;2.45;;;;;;;21.94;49.09;102835.09;10075727;28;20106;-67
2021/08/24 12:00:07;;;;;;;5.88;2.55;;;;;;;21.21;47.98;102837.25;10078478;28;20051;-67
2021/08/24 12:05:12;;;;;;;4.00;1.80;;;;;;;21.12;52.58;102828.16;10085965;28;20055;-67
2021/08/24 12:10:17;;;;;;;4.47;1.70;;;;;;;21.70;50.06;102830.25;10088159;28;20102;-67
2021/08/24 12:15:16;;;;;;;4.68;2.10;;;;;;;21.48;49.25;102829.50;10093029;28;20090;-66
2021/08/24 12:20:44;;;;;;;5.20;2.40;;;;;;;21.83;52.36;102834.72;10102683;28;20551;-65
2021/08/24 12:25:43;;;;;;;11.02;3.45;;;;;;;22.96;50.59;102830.47;10077411;28;20051;-66
2021/08/24 12:30:55;;;;;;;7.50;2.10;;;;;;;23.53;50.64;102826.59;10107090;28;20137;-66
2021/08/24 12:35:52;;;;;;;10.13;2.63;;;;;;;23.78;48.17;102814.50;10083867;28;20054;-67
2021/08/24 12:40:54;;;;;;;4.25;2.00;;;;;;;24.06;47.53;102826.41;10086377;28;20090;-68
2021/08/24 12:46:22;;;;;;;4.93;2.40;;;;;;;23.80;46.94;102814.97;10092236;28;20085;-67
2021/08/24 12:51:29;;;;;;;3.55;1.55;;;;;;;23.54;46.55;102807.84;10081527;28;20051;-68
2021/08/24 12:57:04;;;;;;;3.90;1.73;;;;;;;23.11;44.11;102798.25;10088814;28;20109;-68
2021/08/24 13:02:10;;;;;;;5.57;2.20;;;;;;;23.34;47.97;102794.91;10079357;28;20074;-67
2021/08/24 13:07:18;;;;;;;4.03;2.10;;;;;;;23.58;44.83;102794.81;10086477;28;20070;-67
2021/08/24 13:12:19;;;;;;;4.80;1.98;;;;;;;23.39;48.23;102791.88;10096113;28;20081;-68
2021/08/24 13:17:18;;;;;;;6.10;2.10;;;;;;;22.97;51.00;102789.44;10082471;28;20086;-68
2021/08/24 13:22:39;;;;;;;9.25;2.72;;;;;;;22.57;51.52;102795.81;10090797;28;20101;-69
2021/08/24 13:27:43;;;;;;;4.63;2.13;;;;;;;22.61;52.03;102791.97;10101432;28;20519;-68
2021/08/24 13:32:50;;;;;;;7.13;2.42;;;;;;;22.65;51.38;102786.47;10089369;28;20050;-67
2021/08/24 13:37:49;;;;;;;4.40;2.20;;;;;;;22.53;44.77;102784.53;10095668;28;20105;-66
2021/08/24 13:42:49;;;;;;;4.78;2.08;;;;;;;22.56;49.64;102777.44;10097128;28;20121;-68
2021/08/24 13:47:52;;;;;;;4.53;2.10;;;;;;;22.59;49.29;102782.31;10096786;28;20454;-68
2021/08/24 13:52:59;;;;;;;5.25;2.40;;;;;;;22.67;50.69;102775.78;10094404;28;20689;-67
2021/08/24 13:58:13;;;;;;;6.15;2.50;;;;;;;22.83;41.40;102765.53;10090752;28;20047;-66
2021/08/24 14:03:14;;;;;;;6.35;2.25;;;;;;;23.14;42.56;102761.28;10087104;28;20070;-67
2021/08/24 14:08:14;;;;;;;3.90;2.30;;;;;;;23.31;47.55;102763.75;10101920;28;20047;-67
2021/08/24 14:13:18;;;;;;;4.70;2.25;;;;;;;23.08;43.12;102755.13;10096822;28;20126;-67
2021/08/24 14:18:24;;;;;;;4.53;2.10;;;;;;;23.18;49.98;102759.41;10102129;28;20051;-66
2021/08/24 14:23:24;;;;;;;4.80;2.35;;;;;;;23.32;45.11;102747.81;10103092;28;20050;-66
2021/08/24 14:28:48;;;;;;;6.38;2.70;;;;;;;23.31;44.67;102752.59;10102046;28;20064;-67
2021/08/24 14:33:46;;;;;;;5.15;2.15;;;;;;;23.25;51.12;102758.78;10099635;28;20086;-67
2021/08/24 14:38:55;;;;;;;6.70;2.97;;;;;;;23.13;45.07;102756.88;10093818;28;20105;-68
2021/08/24 14:43:59;;;;;;;7.38;3.05;;;;;;;22.85;41.09;102760.41;10103753;28;20149;-67
2021/08/24 14:49:00;;;;;;;4.82;2.20;;;;;;;22.75;39.82;102763.72;10094329;28;20051;-68
2021/08/24 14:54:00;;;;;;;4.88;2.63;;;;;;;22.72;46.10;102758.84;10105187;28;20102;-68
2021/08/24 14:59:15;;;;;;;7.10;2.63;;;;;;;22.59;39.80;102760.84;10101603;28;20394;-68
2021/08/24 15:04:22;;;;;;;5.43;2.28;;;;;;;22.76;48.06;102751.38;10089155;28;20078;-68
2021/08/24 15:09:48;;;;;;;5.82;2.40;;;;;;;22.96;51.02;102737.63;10090795;28;20066;-68
2021/08/24 15:14:47;;;;;;;8.75;2.90;;;;;;;23.05;43.49;102738.31;10085867;28;20054;-67
2021/08/24 15:20:01;;;;;;;8.35;4.20;;;;;;;23.04;40.30;102725.50;10092731;28;20487;-67
2021/08/24 15:25:00;;;;;;;4.22;2.30;;;;;;;23.01;47.00;102737.41;10083551;28;20051;-67
2021/08/24 15:30:12;;;;;;;5.25;2.03;;;;;;;23.04;50.50;102725.50;10086436;28;20693;-67
2021/08/24 15:35:31;;;;;;;4.78;2.35;;;;;;;22.90;48.34;102726.69;10097436;28;20101;-67
2021/08/24 15:40:28;;;;;;;5.95;2.67;;;;;;;22.81;41.00;102717.69;10102485;28;20564;-67
2021/08/24 15:45:28;;;;;;;7.93;2.40;;;;;;;22.64;39.43;102715.97;10092966;28;20138;-67
2021/08/24 15:50:30;;;;;;;5.82;2.67;;;;;;;22.73;44.36;102720.63;10100714;28;20077;-67
2021/08/24 15:55:35;;;;;;;7.60;2.55;;;;;;;22.69;45.17;102720.50;10098595;28;20901;-67
2021/08/24 16:00:36;;;;;;;6.97;2.20;;;;;;;22.73;46.76;102715.03;10100880;28;20078;-67
2021/08/24 16:05:34;;;;;;;5.82;2.85;;;;;;;22.63;46.54;102707.97;10095277;28;20548;-67
2021/08/24 16:10:39;;;;;;;6.22;2.40;;;;;;;22.59;48.05;102709.84;10110589;28;20398;-67
2021/08/24 16:15:38;;;;;;;5.60;2.50;;;;;;;22.81;42.33;102711.28;10099094;28;20086;-68
2021/08/24 16:20:35;;;;;;;7.32;2.85;;;;;;;23.43;41.63;102714.63;10107536;28;20073;-67
2021/08/24 16:25:33;;;;;;;4.57;2.60;;;;;;;23.65;41.22;102716.81;10103834;28;20105;-67
2021/08/24 16:30:32;;;;;;;4.40;2.25;;;;;;;23.80;39.26;102706.03;10106171;28;20548;-68
2021/08/24 16:35:32;;;;;;;6.25;2.88;;;;;;;24.13;39.58;102703.63;10102896;28;20465;-68
2021/08/24 16:40:29;;;;;;;5.78;2.55;;;;;;;24.42;37.85;102704.31;10108997;28;20051;-68
2021/08/24 16:45:28;;;;;;;5.53;2.53;;;;;;;24.50;36.83;102706.09;10103314;28;20051;-67
2021/08/24 16:50:27;;;;;;;6.35;2.75;;;;;;;25.11;37.32;102695.34;10106602;28;20065;-67
2021/08/24 16:55:26;;;;;;;9.07;2.92;;;;;;;25.77;38.74;102699.75;10106235;28;20530;-67
2021/08/24 17:00:25;;;;;;;6.30;2.50;;;;;;;26.22;35.85;102694.44;10109637;28;20090;-67
2021/08/24 17:05:25;;;;;;;4.93;2.70;;;;;;;26.66;33.35;102694.66;10103165;28;20109;-67
2021/08/24 17:10:23;;;;;;;12.07;3.03;;;;;;;26.06;35.45;102700.22;10097100;28;20044;-67
2021/08/24 17:15:27;;;;;;;10.57;2.95;;;;;;;24.84;36.90;102702.81;10106789;28;20212;-67
2021/08/24 17:20:23;;;;;;;12.10;7.00;;;;;;;24.02;36.25;102696.16;10102706;28;20053;-67
2021/08/24 17:25:35;;;;;;;10.43;4.60;;;;;;;23.43;39.33;102697.88;10102648;28;20438;-68
2021/08/24 17:30:32;;;;;;;7.68;3.40;;;;;;;22.93;40.32;102699.25;10107697;28;20059;-68
2021/08/24 17:35:30;;;;;;;6.15;2.97;;;;;;;22.55;41.22;102703.34;10104700;28;20445;-68
2021/08/24 17:40:26;;;;;;;7.65;3.40;;;;;;;22.20;41.71;102703.84;10100872;28;20051;-68
2021/08/24 17:45:29;;;;;;;7.07;3.10;;;;;;;21.91;41.55;102700.16;10100221;28;20046;-67
2021/08/24 17:50:28;;;;;;;4.85;2.30;;;;;;;21.66;42.44;102702.09;10092479;28;20043;-67
2021/08/24 17:55:27;;;;;;;7.20;2.58;;;;;;;21.39;43.28;102709.06;10101423;28;20516;-67
2021/08/24 18:00:23;;;;;;;8.52;2.80;;;;;;;21.15;44.11;102710.63;10103174;28;20405;-67
2021/08/24 18:05:34;;;;;;;6.38;2.90;;;;;;;20.88;44.22;102716.78;10098461;28;20051;-67
2021/08/24 18:10:31;;;;;;;8.40;3.05;;;;;;;20.68;46.38;102708.13;10097590;28;20106;-68
2021/08/24 18:15:32;;;;;;;7.28;2.90;;;;;;;20.48;46.65;102709.69;10105050;28;20575;-66
2021/08/24 18:20:30;;;;;;;5.63;2.60;;;;;;;20.29;47.33;102712.91;10102511;28;20528;-68
2021/08/24 18:25:29;;;;;;;9.82;3.42;;;;;;;20.09;47.39;102708.13;10091197;28;20134;-68
2021/08/24 18:30:26;;;;;;;7.95;3.70;;;;;;;19.88;48.11;102703.31;10100538;28;20074;-68
2021/08/24 18:35:28;;;;;;;10.65;4.35;;;;;;;19.69;48.16;102700.97;10096972;28;20062;-68
2021/08/24 18:40:26;;;;;;;9.63;5.00;;;;;;;19.50;48.51;102698.56;10079783;28;20056;-68
2021/08/24 18:45:24;;;;;;;11.00;4.38;;;;;;;19.34;49.79;102712.13;10093078;28;20082;-68
2021/08/24 18:50:22;;;;;;;8.00;3.45;;;;;;;19.20;50.53;102699.63;10097417;28;20078;-68
2021/08/24 18:55:44;;;;;;;8.90;3.65;;;;;;;19.03;50.72;102709.59;10096044;28;20540;-68
2021/08/24 19:00:48;;;;;;;6.97;3.55;;;;;;;18.86;51.16;102710.38;10101712;28;20078;-68
2021/08/24 19:05:45;;;;;;;9.63;4.07;;;;;;;18.74;51.79;102715.75;10096540;28;20055;-68
2021/08/24 19:10:42;;;;;;;8.70;4.18;;;;;;;18.58;51.73;102712.63;10103800;28;20050;-69
2021/08/24 19:15:45;;;;;;;8.95;4.22;;;;;;;18.45;52.46;102719.13;10102660;28;20105;-68
2021/08/24 19:20:44;;;;;;;10.27;4.33;;;;;;;18.35;53.28;102708.34;10096026;28;20051;-68
2021/08/24 19:25:41;;;;;;;9.35;4.25;;;;;;;18.24;53.28;102713.38;10093083;28;20977;-68
2021/08/24 19:30:37;;;;;;;8.10;4.18;;;;;;;18.13;53.67;102712.88;10099872;28;20556;-68
2021/08/24 19:35:35;;;;;;;9.60;4.75;;;;;;;17.99;54.39;102704.69;10086546;28;20505;-68
2021/08/24 19:40:32;;;;;;;8.93;4.70;;;;;;;17.90;54.29;102703.84;10095795;28;20066;-70
2021/08/24 19:45:33;;;;;;;11.57;5.35;;;;;;;17.81;55.37;102701.03;10099062;28;20129;-71
2021/08/24 19:50:30;;;;;;;12.60;5.40;;;;;;;17.72;55.41;102694.59;10095185;28;20142;-70
2021/08/24 19:55:39;;;;;;;12.30;5.75;;;;;;;17.61;55.79;102701.53;10092049;28;21800;-71
2021/08/24 20:00:38;;;;;;;10.60;5.85;;;;;;;17.50;56.86;102691.88;10088609;28;20089;-69
2021/08/24 20:05:37;;;;;;;11.90;5.85;;;;;;;17.40;57.37;102696.53;10095221;28;20098;-69
2021/08/24 20:10:34;;;;;;;12.32;5.82;;;;;;;17.28;57.50;102685.25;10091841;28;20047;-69
2021/08/24 20:15:39;;;;;;;13.27;5.45;;;;;;;17.20;58.37;102688.81;10098187;28;20137;-69
2021/08/24 20:20:40;;;;;;;13.02;6.30;;;;;;;17.09;58.54;102684.66;10093998;28;20158;-69
2021/08/24 20:25:39;;;;;;;9.80;5.60;;;;;;;16.99;59.64;102689.31;10105856;28;20567;-69
2021/08/24 20:30:37;;;;;;;12.23;6.20;;;;;;;16.93;59.94;102681.44;10104790;28;20066;-69
2021/08/24 20:35:34;;;;;;;14.73;7.25;;;;;;;16.81;60.41;102680.06;10105136;28;20057;-69
2021/08/24 20:40:36;;;;;;;19.30;8.40;;;;;;;16.71;61.36;102676.69;10109978;28;20055;-69
2021/08/24 20:45:33;;;;;;;15.80;7.73;;;;;;;16.67;61.50;102675.69;10110694;28;20082;-69
2021/08/24 20:50:29;;;;;;;14.00;6.75;;;;;;;16.60;61.70;102668.63;10108971;28;20070;-68
2021/08/24 20:55:26;;;;;;;14.07;7.60;;;;;;;16.52;62.31;102666.59;10101680;28;20070;-67
2021/08/24 21:00:22;;;;;;;12.68;7.57;;;;;;;16.44;62.44;102670.13;10111727;28;20129;-68
2021/08/24 21:05:28;;;;;;;14.98;7.53;;;;;;;16.34;63.31;102670.34;10102145;28;20479;-68
2021/08/24 21:10:26;;;;;;;13.23;7.88;;;;;;;16.29;64.04;102667.69;10106684;28;20240;-68
2021/08/24 21:15:29;;;;;;;13.00;7.68;;;;;;;16.18;64.26;102667.91;10101280;28;20047;-68
2021/08/24 21:20:26;;;;;;;14.13;7.32;;;;;;;16.11;64.71;102662.00;10109685;28;20055;-69
2021/08/24 21:25:25;;;;;;;15.45;7.88;;;;;;;16.01;64.63;102656.69;10105813;28;20102;-70
2021/08/24 21:30:25;;;;;;;12.55;8.05;;;;;;;15.96;65.40;102659.53;10110706;28;20051;-68
2021/08/24 21:35:43;;;;;;;13.95;7.75;;;;;;;15.85;65.35;102652.59;10097336;28;20698;-69
2021/08/24 21:40:57;;;;;;;14.38;8.40;;;;;;;15.78;66.46;102640.06;10103433;28;20485;-69
2021/08/24 21:45:54;;;;;;;12.50;7.80;;;;;;;15.73;66.53;102640.16;10108526;28;20094;-69
2021/08/24 21:50:52;;;;;;;14.98;7.82;;;;;;;15.64;66.94;102641.97;10109887;28;20043;-72
2021/08/24 21:55:57;;;;;;;11.40;6.60;;;;;;;15.58;67.25;102637.66;10098905;28;20473;-69
2021/08/24 22:00:54;;;;;;;11.55;7.10;;;;;;;15.51;67.42;102637.25;10111330;28;20038;-69
2021/08/24 22:05:52;;;;;;;13.82;7.45;;;;;;;15.47;67.74;102636.22;10105210;28;20565;-70
2021/08/24 22:10:50;;;;;;;13.70;7.82;;;;;;;15.40;68.50;102631.09;10105958;28;20058;-71
2021/08/24 22:16:07;;;;;;;17.55;7.78;;;;;;;15.31;68.81;102633.72;10104980;28;20074;-71
2021/08/24 22:21:05;;;;;;;15.18;8.07;;;;;;;15.26;69.00;102641.28;10100815;28;20080;-68
2021/08/24 22:26:02;;;;;;;13.18;7.57;;;;;;;15.20;69.33;102626.78;10102089;28;20130;-69
2021/08/24 22:30:58;;;;;;;12.93;7.57;;;;;;;15.16;69.25;102620.25;10101860;28;20070;-68
2021/08/24 22:35:58;;;;;;;15.02;7.65;;;;;;;15.09;70.00;102625.34;10097749;28;20073;-69
2021/08/24 22:40:56;;;;;;;15.18;7.65;;;;;;;15.00;70.32;102627.13;10106929;28;20049;-70
2021/08/24 22:45:54;;;;;;;16.75;8.35;;;;;;;14.98;70.11;102618.34;10098377;28;20620;-70
2021/08/24 22:50:51;;;;;;;14.40;8.02;;;;;;;14.92;70.36;102615.69;10110179;28;20559;-69
2021/08/24 22:55:47;;;;;;;13.18;7.90;;;;;;;14.88;70.53;102609.16;10102654;28;20528;-70
2021/08/24 23:00:44;;;;;;;14.48;8.05;;;;;;;14.87;70.87;102607.50;10105563;28;20039;-70
2021/08/24 23:05:41;;;;;;;14.88;7.40;;;;;;;14.83;71.01;102606.47;10100478;28;20881;-69
2021/08/24 23:10:41;;;;;;;15.05;8.00;;;;;;;14.76;71.27;102603.31;10105886;28;20050;-70
2021/08/24 23:15:38;;;;;;;13.18;7.72;;;;;;;14.72;71.38;102594.00;10098970;28;20134;-70